createdAt,value
2017-02-08T00:00:15.163Z,73.52
2017-02-08T00:01:15.147Z,73.24
2017-02-08T00:02:15.130Z,73.05
2017-02-08T00:03:15.113Z,73.52
2017-02-08T00:04:15.098Z,73.33
2017-02-08T00:05:15.080Z,73.05
2017-02-08T00:06:15.064Z,73.33
2017-02-08T00:07:15.047Z,73.33
2017-02-08T00:08:15.036Z,73.05
2017-02-08T00:09:15.015Z,72.77
2017-02-08T00:10:14.999Z,73.14
2017-02-08T00:11:14.982Z,73.14
2017-02-08T00:12:14.581Z,72.86
2017-02-08T00:13:14.948Z,72.96
2017-02-08T00:14:14.933Z,73.33
2017-02-08T00:15:14.915Z,73.33
2017-02-08T00:16:14.900Z,73.43
2017-02-08T00:17:14.883Z,73.52
2017-02-08T00:18:14.872Z,73.52
2017-02-08T00:19:14.850Z,73.62
2017-02-08T00:20:14.833Z,73.14
2017-02-08T00:21:14.818Z,73.62
2017-02-08T00:22:14.803Z,73.43
2017-02-08T00:23:14.788Z,72.96
2017-02-08T00:24:14.770Z,73.33
2017-02-08T00:25:14.756Z,72.96
2017-02-08T00:26:14.740Z,73.24
2017-02-08T00:27:14.720Z,74
2017-02-08T00:28:14.705Z,73.9
2017-02-08T00:29:14.686Z,74
2017-02-08T00:30:14.669Z,74
2017-02-08T00:31:14.658Z,74.28
2017-02-08T00:32:14.637Z,74
2017-02-08T00:33:14.619Z,74.28
2017-02-08T00:34:14.603Z,73.71
2017-02-08T00:35:14.586Z,73.43
2017-02-08T00:36:14.572Z,74.09
2017-02-08T00:37:14.558Z,74.09
2017-02-08T00:38:14.539Z,74.19
2017-02-08T00:39:14.523Z,74.19
2017-02-08T00:40:14.505Z,73.81
2017-02-08T00:41:14.489Z,74
2017-02-08T00:42:14.472Z,74
2017-02-08T00:43:14.455Z,73.9
2017-02-08T00:44:14.440Z,74
2017-02-08T00:45:14.424Z,74.28
2017-02-08T00:46:14.408Z,74
2017-02-08T00:47:14.390Z,73.14
2017-02-08T00:48:14.375Z,73.52
2017-02-08T00:49:14.357Z,73.71
2017-02-08T00:50:14.343Z,73.33
2017-02-08T00:51:14.326Z,73.24
2017-02-08T00:52:14.310Z,72.96
2017-02-08T00:53:14.292Z,72.96
2017-02-08T00:54:14.275Z,73.24
2017-02-08T00:55:14.260Z,73.33
2017-02-08T00:56:14.245Z,73.43
2017-02-08T00:57:14.226Z,73.14
2017-02-08T00:58:14.209Z,73.43
2017-02-08T00:59:14.195Z,73.14
2017-02-08T01:00:14.177Z,72.77
2017-02-08T01:01:14.163Z,72.96
2017-02-08T01:02:14.144Z,72.49
2017-02-08T01:03:14.128Z,72.58
2017-02-08T01:04:14.111Z,72.86
2017-02-08T01:05:14.095Z,72.86
2017-02-08T01:06:14.079Z,72.96
2017-02-08T01:07:14.062Z,72.67
2017-02-08T01:08:14.045Z,72.2
2017-02-08T01:09:14.029Z,72.3
2017-02-08T01:10:14.013Z,72.2
2017-02-08T01:11:13.997Z,72.58
2017-02-08T01:12:13.981Z,72.96
2017-02-08T01:13:13.964Z,73.33
2017-02-08T01:14:13.947Z,72.96
2017-02-08T01:15:13.932Z,73.14
2017-02-08T01:16:13.916Z,72.96
2017-02-08T01:17:13.899Z,73.24
2017-02-08T01:18:13.880Z,73.14
2017-02-08T01:19:13.866Z,72.58
2017-02-08T01:20:13.846Z,72.86
2017-02-08T01:21:13.830Z,72.86
2017-02-08T01:22:13.814Z,72.96
2017-02-08T01:23:13.796Z,72.96
2017-02-08T01:24:13.781Z,72.83
2017-02-08T01:25:13.764Z,73.24
2017-02-08T01:26:13.746Z,73.33
2017-02-08T01:27:13.731Z,72.96
2017-02-08T01:28:13.714Z,73.05
2017-02-08T01:29:13.700Z,72.96
2017-02-08T01:30:13.679Z,73.14
2017-02-08T01:31:13.664Z,73.05
2017-02-08T01:32:13.647Z,72.96
2017-02-08T01:33:13.631Z,72.77
2017-02-08T01:34:13.614Z,72.86
2017-02-08T01:35:13.595Z,72.67
2017-02-08T01:36:13.581Z,72.96
2017-02-08T01:37:13.562Z,72.67
2017-02-08T01:38:13.546Z,72.58
2017-02-08T01:39:13.529Z,71.83
2017-02-08T01:40:13.513Z,72.2
2017-02-08T01:41:13.113Z,72.36
2017-02-08T01:42:13.480Z,72.55
2017-02-08T01:43:13.463Z,72.73
2017-02-08T01:44:13.445Z,72.83
2017-02-08T01:45:13.429Z,72.73
2017-02-08T01:46:13.414Z,72.73
2017-02-08T01:47:13.397Z,72.45
2017-02-08T01:48:13.378Z,72.83
2017-02-08T01:49:13.363Z,72.64
2017-02-08T01:50:13.344Z,72.55
2017-02-08T01:51:13.330Z,72.64
2017-02-08T01:52:13.311Z,72.64
2017-02-08T01:53:13.296Z,72.55
2017-02-08T01:54:13.279Z,72.26
2017-02-08T01:55:13.265Z,72.64
2017-02-08T01:56:13.243Z,72.64
2017-02-08T01:57:13.228Z,72.55
2017-02-08T01:58:13.213Z,72.92
2017-02-08T01:59:13.195Z,73.02
2017-02-08T02:00:13.177Z,72.92
2017-02-08T02:01:13.160Z,72.73
2017-02-08T02:02:12.757Z,73.3
2017-02-08T02:03:13.130Z,73.02
2017-02-08T02:04:13.110Z,72.92
2017-02-08T02:05:13.093Z,73.3
2017-02-08T02:06:13.075Z,72.83
2017-02-08T02:07:13.059Z,73.11
2017-02-08T02:08:13.042Z,73.21
2017-02-08T02:09:13.025Z,73.02
2017-02-08T02:10:13.013Z,73.11
2017-02-08T02:11:12.996Z,72.64
2017-02-08T02:12:12.974Z,72.55
2017-02-08T02:13:12.962Z,73.21
2017-02-08T02:14:12.941Z,73.11
2017-02-08T02:15:12.925Z,72.73
2017-02-08T02:16:12.910Z,72.73
2017-02-08T02:17:12.890Z,73.11
2017-02-08T02:18:12.873Z,73.11
2017-02-08T02:19:12.857Z,73.58
2017-02-08T02:20:12.839Z,73.39
2017-02-08T02:21:12.823Z,73.68
2017-02-08T02:22:12.422Z,73.58
2017-02-08T02:23:12.788Z,73.58
2017-02-08T02:24:12.771Z,73.3
2017-02-08T02:25:12.754Z,73.49
2017-02-08T02:26:12.741Z,73.49
2017-02-08T02:27:12.721Z,72.92
2017-02-08T02:28:12.703Z,73.77
2017-02-08T02:29:12.686Z,74.34
2017-02-08T02:30:12.672Z,73.58
2017-02-08T02:31:12.658Z,73.68
2017-02-08T02:32:12.640Z,73.21
2017-02-08T02:33:12.620Z,73.02
2017-02-08T02:34:12.605Z,73.49
2017-02-08T02:35:12.200Z,73.96
2017-02-08T02:36:12.567Z,74.15
2017-02-08T02:37:12.554Z,73.77
2017-02-08T02:38:12.535Z,74.81
2017-02-08T02:39:12.515Z,74.24
2017-02-08T02:40:12.500Z,73.86
2017-02-08T02:41:12.485Z,73.77
2017-02-08T02:42:12.471Z,73.77
2017-02-08T02:43:12.451Z,74.05
2017-02-08T02:44:12.433Z,74.05
2017-02-08T02:45:12.416Z,74.15
2017-02-08T02:46:12.399Z,74.05
2017-02-08T02:47:12.382Z,74.05
2017-02-08T02:48:12.364Z,74.15
2017-02-08T02:49:12.353Z,74.15
2017-02-08T02:50:12.334Z,73.86
2017-02-08T02:51:12.313Z,74.24
2017-02-08T02:52:12.296Z,73.86
2017-02-08T02:53:12.279Z,74.34
2017-02-08T02:54:12.260Z,74.05
2017-02-08T02:55:12.248Z,74.34
2017-02-08T02:56:12.227Z,74.24
2017-02-08T02:57:12.211Z,74.24
2017-02-08T02:58:11.808Z,74.43
2017-02-08T02:59:12.177Z,74.71
2017-02-08T03:00:11.775Z,74.43
2017-02-08T03:01:12.145Z,74.34
2017-02-08T03:02:12.128Z,74.34
2017-02-08T03:03:12.110Z,74.05
2017-02-08T03:04:12.092Z,74.05
2017-02-08T03:05:12.074Z,74.24
2017-02-08T03:06:12.062Z,74.34
2017-02-08T03:07:12.041Z,73.77
2017-02-08T03:08:11.637Z,73.68
2017-02-08T03:09:12.007Z,73.86
2017-02-08T03:10:11.990Z,73.96
2017-02-08T03:11:11.974Z,74.34
2017-02-08T03:12:11.955Z,74.15
2017-02-08T03:13:11.939Z,74.15
2017-02-08T03:14:11.921Z,74.05
2017-02-08T03:15:11.903Z,74.62
2017-02-08T03:16:11.889Z,74.81
2017-02-08T03:17:11.870Z,74.62
2017-02-08T03:18:11.856Z,74.43
2017-02-08T03:19:11.836Z,74.24
2017-02-08T03:20:11.822Z,74.43
2017-02-08T03:21:11.800Z,74.15
2017-02-08T03:22:11.785Z,74.34
2017-02-08T03:23:11.768Z,74.34
2017-02-08T03:24:11.750Z,74.24
2017-02-08T03:25:11.733Z,74.05
2017-02-08T03:26:11.716Z,73.96
2017-02-08T03:27:11.699Z,73.86
2017-02-08T03:28:11.714Z,73.86
2017-02-08T03:29:11.665Z,73.96
2017-02-08T03:30:11.647Z,73.77
2017-02-08T03:31:11.632Z,74.24
2017-02-08T03:32:11.613Z,73.77
2017-02-08T03:33:11.596Z,73.86
2017-02-08T03:34:11.579Z,73.68
2017-02-08T03:35:11.562Z,73.86
2017-02-08T03:36:11.547Z,73.86
2017-02-08T03:37:11.530Z,73.86
2017-02-08T03:38:11.511Z,73.86
2017-02-08T03:39:11.492Z,74.15
2017-02-08T03:40:11.476Z,74.15
2017-02-08T03:41:11.459Z,74.24
2017-02-08T03:42:11.443Z,73.96
2017-02-08T03:43:11.428Z,73.77
2017-02-08T03:44:11.409Z,74.24
2017-02-08T03:45:11.391Z,73.49
2017-02-08T03:46:11.374Z,73.39
2017-02-08T03:47:11.356Z,73.58
2017-02-08T03:48:11.340Z,73.49
2017-02-08T03:49:11.323Z,73.68
2017-02-08T03:50:11.307Z,73.3
2017-02-08T03:51:11.293Z,73.39
2017-02-08T03:52:11.273Z,73.02
2017-02-08T03:53:11.253Z,73.58
2017-02-08T03:54:11.238Z,73.3
2017-02-08T03:55:11.221Z,73.39
2017-02-08T03:56:11.202Z,73.68
2017-02-08T03:57:11.187Z,74.15
2017-02-08T03:58:11.170Z,73.96
2017-02-08T03:59:11.156Z,74.53
2017-02-08T04:00:11.135Z,74.62
2017-02-08T04:01:11.121Z,74.15
2017-02-08T04:02:11.106Z,74.15
2017-02-08T04:03:11.084Z,74.05
2017-02-08T04:04:11.067Z,74.24
2017-02-08T04:05:11.050Z,73.96
2017-02-08T04:06:10.647Z,73.86
2017-02-08T04:07:11.015Z,73.96
2017-02-08T04:08:10.999Z,73.96
2017-02-08T04:09:10.981Z,74.34
2017-02-08T04:10:10.580Z,73.49
2017-02-08T04:11:10.947Z,73.58
2017-02-08T04:12:10.930Z,73.26
2017-02-08T04:13:10.914Z,73.07
2017-02-08T04:14:10.896Z,73.36
2017-02-08T04:15:10.878Z,74.11
2017-02-08T04:16:10.862Z,74.21
2017-02-08T04:17:10.846Z,74.49
2017-02-08T04:18:10.828Z,74.58
2017-02-08T04:19:10.827Z,74.02
2017-02-08T04:20:10.794Z,74.68
2017-02-08T04:21:10.776Z,74.49
2017-02-08T04:22:10.373Z,74.3
2017-02-08T04:23:10.741Z,74.11
2017-02-08T04:24:10.336Z,74.3
2017-02-08T04:25:10.316Z,74.58
2017-02-08T04:26:10.688Z,74.02
2017-02-08T04:27:10.672Z,74.58
2017-02-08T04:28:10.268Z,74.49
2017-02-08T04:29:10.637Z,74.4
2017-02-08T04:30:10.618Z,74.21
2017-02-08T04:31:10.215Z,74.21
2017-02-08T04:32:10.584Z,74.11
2017-02-08T04:33:10.570Z,74.4
2017-02-08T04:34:10.551Z,73.93
2017-02-08T04:35:10.534Z,74.4
2017-02-08T04:36:10.129Z,74.21
2017-02-08T04:37:10.508Z,74.21
2017-02-08T04:38:10.096Z,74.43
2017-02-08T04:39:10.466Z,74.02
2017-02-08T04:40:10.058Z,74.02
2017-02-08T04:41:10.043Z,74.62
2017-02-08T04:42:10.412Z,74.43
2017-02-08T04:43:10.396Z,74.24
2017-02-08T04:44:10.378Z,74.34
2017-02-08T04:45:10.361Z,74.24
2017-02-08T04:46:10.344Z,74.34
2017-02-08T04:47:10.327Z,74.34
2017-02-08T04:48:10.310Z,74.43
2017-02-08T04:49:09.904Z,74.34
2017-02-08T04:50:10.272Z,74.53
2017-02-08T04:51:10.256Z,73.77
2017-02-08T04:52:09.852Z,74.43
2017-02-08T04:53:09.835Z,74.43
2017-02-08T04:54:10.203Z,74.71
2017-02-08T04:55:10.187Z,74.9
2017-02-08T04:56:10.174Z,74.81
2017-02-08T04:57:10.155Z,74.77
2017-02-08T04:58:09.749Z,74.43
2017-02-08T04:59:10.120Z,74.71
2017-02-08T05:00:09.715Z,74.53
2017-02-08T05:01:09.698Z,74.58
2017-02-08T05:02:10.066Z,74.68
2017-02-08T05:03:10.050Z,74.3
2017-02-08T05:04:10.031Z,74.68
2017-02-08T05:05:10.014Z,74.68
2017-02-08T05:06:09.997Z,74.4
2017-02-08T05:07:09.592Z,74.53
2017-02-08T05:08:09.962Z,74.81
2017-02-08T05:09:09.945Z,74.49
2017-02-08T05:10:09.543Z,74.34
2017-02-08T05:11:09.911Z,74.15
2017-02-08T05:12:09.894Z,74.53
2017-02-08T05:13:09.488Z,74.34
2017-02-08T05:14:09.859Z,73.86
2017-02-08T05:15:09.842Z,73.96
2017-02-08T05:16:09.824Z,73.11
2017-02-08T05:17:09.807Z,73.39
2017-02-08T05:18:09.790Z,73.49
2017-02-08T05:19:09.772Z,73.49
2017-02-08T05:20:09.755Z,73.21
2017-02-08T05:21:09.737Z,73.49
2017-02-08T05:22:09.720Z,73.39
2017-02-08T05:23:09.703Z,73.39
2017-02-08T05:24:09.684Z,73.49
2017-02-08T05:25:09.283Z,73.3
2017-02-08T05:26:09.650Z,73.21
2017-02-08T05:27:09.632Z,72.83
2017-02-08T05:28:09.230Z,73.3
2017-02-08T05:29:09.600Z,73.36
2017-02-08T05:30:09.609Z,73.21
2017-02-08T05:31:09.565Z,73.49
2017-02-08T05:32:09.546Z,73.21
2017-02-08T05:33:09.531Z,72.92
2017-02-08T05:34:09.426Z,73.02
2017-02-08T05:35:09.495Z,73.02
2017-02-08T05:36:09.478Z,72.88
2017-02-08T05:37:09.460Z,72.92
2017-02-08T05:38:09.441Z,73.17
2017-02-08T05:39:09.426Z,73.58
2017-02-08T05:40:09.407Z,73.55
2017-02-08T05:41:09.005Z,73.49
2017-02-08T05:42:08.988Z,73.58
2017-02-08T05:43:09.358Z,73.45
2017-02-08T05:44:09.339Z,73.45
2017-02-08T05:45:09.322Z,73.55
2017-02-08T05:46:09.303Z,73.55
2017-02-08T05:47:09.288Z,73.55
2017-02-08T05:48:08.884Z,73.36
2017-02-08T05:49:09.251Z,73.17
2017-02-08T05:50:09.235Z,73.55
2017-02-08T05:51:09.218Z,72.98
2017-02-08T05:52:09.201Z,73.17
2017-02-08T05:53:08.799Z,73.26
2017-02-08T05:54:09.165Z,73.26
2017-02-08T05:55:09.152Z,73.45
2017-02-08T05:56:09.132Z,73.45
2017-02-08T05:57:09.116Z,74.02
2017-02-08T05:58:09.097Z,74.02
2017-02-08T05:59:09.080Z,73.36
2017-02-08T06:00:09.062Z,73.36
2017-02-08T06:01:09.044Z,73.36
2017-02-08T06:02:09.027Z,73.64
2017-02-08T06:03:09.009Z,72.98
2017-02-08T06:04:08.990Z,72.79
2017-02-08T06:05:08.974Z,72.69
2017-02-08T06:06:08.957Z,72.79
2017-02-08T06:07:08.942Z,73.17
2017-02-08T06:08:08.924Z,73.55
2017-02-08T06:09:08.908Z,73.45
2017-02-08T06:10:08.501Z,73.45
2017-02-08T06:11:08.870Z,73.45
2017-02-08T06:12:08.852Z,72.88
2017-02-08T06:13:08.835Z,72.79
2017-02-08T06:14:08.432Z,72.51
2017-02-08T06:15:08.413Z,72.6
2017-02-08T06:16:08.784Z,72.6
2017-02-08T06:17:08.767Z,72.88
2017-02-08T06:18:08.363Z,73.07
2017-02-08T06:19:08.734Z,73.17
2017-02-08T06:20:08.328Z,73.07
2017-02-08T06:21:08.696Z,72.88
2017-02-08T06:22:08.678Z,72.79
2017-02-08T06:23:08.660Z,72.79
2017-02-08T06:24:08.644Z,72.6
2017-02-08T06:25:08.625Z,72.79
2017-02-08T06:26:08.220Z,72.79
2017-02-08T06:27:08.590Z,72.79
2017-02-08T06:28:08.575Z,72.79
2017-02-08T06:29:08.555Z,73.26
2017-02-08T06:30:08.542Z,73.07
2017-02-08T06:31:08.521Z,72.88
2017-02-08T06:32:08.503Z,72.88
2017-02-08T06:33:08.484Z,72.88
2017-02-08T06:34:08.467Z,73.17
2017-02-08T06:35:08.450Z,72.79
2017-02-08T06:36:08.432Z,72.69
2017-02-08T06:37:08.414Z,73.07
2017-02-08T06:38:08.401Z,73.07
2017-02-08T06:39:08.381Z,72.98
2017-02-08T06:40:07.972Z,73.36
2017-02-08T06:41:08.345Z,73.36
2017-02-08T06:42:07.939Z,73.17
2017-02-08T06:43:08.309Z,73.26
2017-02-08T06:44:08.289Z,73.45
2017-02-08T06:45:08.271Z,73.45
2017-02-08T06:46:08.255Z,73.17
2017-02-08T06:47:08.237Z,73.36
2017-02-08T06:48:08.218Z,73.36
2017-02-08T06:49:08.201Z,72.98
2017-02-08T06:50:08.187Z,73.55
2017-02-08T06:51:08.167Z,73.74
2017-02-08T06:52:08.150Z,74.3
2017-02-08T06:53:08.131Z,73.83
2017-02-08T06:54:08.112Z,73.83
2017-02-08T06:55:08.097Z,73.17
2017-02-08T06:56:08.079Z,73.26
2017-02-08T06:57:08.060Z,73.07
2017-02-08T06:58:08.044Z,73.45
2017-02-08T06:59:08.026Z,73.74
2017-02-08T07:00:08.006Z,73.36
2017-02-08T07:01:07.990Z,73.93
2017-02-08T07:02:07.970Z,73.36
2017-02-08T07:03:07.953Z,73.17
2017-02-08T07:04:07.549Z,73.07
2017-02-08T07:05:07.919Z,73.45
2017-02-08T07:06:07.901Z,73.45
2017-02-08T07:07:07.883Z,73.07
2017-02-08T07:08:07.871Z,73.17
2017-02-08T07:09:07.848Z,73.26
2017-02-08T07:10:07.829Z,73.07
2017-02-08T07:11:07.815Z,73.26
2017-02-08T07:12:07.796Z,73.17
2017-02-08T07:13:07.778Z,73.55
2017-02-08T07:14:07.760Z,73.45
2017-02-08T07:15:07.744Z,73.07
2017-02-08T07:16:07.337Z,73.45
2017-02-08T07:17:07.707Z,73.07
2017-02-08T07:18:07.691Z,73.45
2017-02-08T07:19:07.673Z,73.55
2017-02-08T07:20:07.655Z,72.88
2017-02-08T07:21:07.634Z,74.02
2017-02-08T07:22:07.619Z,73.83
2017-02-08T07:23:07.602Z,73.93
2017-02-08T07:24:07.581Z,73.64
2017-02-08T07:25:07.564Z,73.36
2017-02-08T07:26:07.161Z,72.79
2017-02-08T07:27:07.530Z,72.98
2017-02-08T07:28:07.512Z,72.88
2017-02-08T07:29:07.495Z,72.69
2017-02-08T07:30:07.478Z,72.88
2017-02-08T07:31:07.463Z,73.07
2017-02-08T07:32:07.056Z,72.79
2017-02-08T07:33:07.425Z,72.88
2017-02-08T07:34:07.406Z,72.69
2017-02-08T07:35:07.393Z,72.79
2017-02-08T07:36:07.370Z,72.98
2017-02-08T07:37:07.355Z,72.88
2017-02-08T07:38:07.338Z,72.88
2017-02-08T07:39:07.319Z,72.98
2017-02-08T07:40:07.303Z,72.51
2017-02-08T07:41:07.287Z,72.6
2017-02-08T07:42:07.272Z,72.41
2017-02-08T07:43:07.251Z,72.79
2017-02-08T07:44:07.233Z,73.07
2017-02-08T07:45:07.217Z,72.88
2017-02-08T07:46:07.201Z,73.07
2017-02-08T07:47:07.182Z,72.88
2017-02-08T07:48:07.165Z,72.88
2017-02-08T07:49:07.151Z,72.69
2017-02-08T07:50:07.131Z,72.69
2017-02-08T07:51:07.112Z,72.88
2017-02-08T07:52:07.095Z,72.26
2017-02-08T07:53:07.078Z,71.88
2017-02-08T07:54:07.062Z,71.84
2017-02-08T07:55:07.043Z,71.98
2017-02-08T07:56:07.026Z,72.03
2017-02-08T07:57:07.010Z,72.03
2017-02-08T07:58:06.991Z,72.03
2017-02-08T07:59:06.972Z,72.22
2017-02-08T08:00:06.956Z,71.84
2017-02-08T08:01:06.938Z,72.22
2017-02-08T08:02:06.921Z,71.75
2017-02-08T08:03:06.905Z,71.66
2017-02-08T08:04:06.885Z,72.03
2017-02-08T08:05:06.870Z,72.17
2017-02-08T08:06:06.856Z,71.88
2017-02-08T08:07:06.836Z,71.88
2017-02-08T08:08:06.816Z,72.17
2017-02-08T08:09:06.801Z,71.28
2017-02-08T08:10:06.785Z,71.41
2017-02-08T08:11:06.767Z,71.69
2017-02-08T08:12:06.749Z,71.79
2017-02-08T08:13:06.734Z,71.31
2017-02-08T08:14:06.713Z,71.88
2017-02-08T08:15:06.696Z,71.98
2017-02-08T08:16:06.680Z,71.88
2017-02-08T08:17:06.663Z,71.28
2017-02-08T08:18:06.646Z,71.31
2017-02-08T08:19:06.628Z,71.88
2017-02-08T08:20:06.612Z,72.17
2017-02-08T08:21:06.594Z,71.88
2017-02-08T08:22:06.577Z,71.6
2017-02-08T08:23:06.558Z,71.12
2017-02-08T08:24:06.541Z,71.5
2017-02-08T08:25:06.525Z,71.41
2017-02-08T08:26:06.507Z,71.88
2017-02-08T08:27:06.491Z,71.69
2017-02-08T08:28:06.474Z,71.69
2017-02-08T08:29:06.458Z,71.79
2017-02-08T08:30:06.439Z,71.22
2017-02-08T08:31:06.423Z,71.6
2017-02-08T08:32:06.405Z,71.12
2017-02-08T08:33:06.389Z,70.84
2017-02-08T08:34:06.377Z,70.56
2017-02-08T08:35:05.967Z,70.56
2017-02-08T08:36:06.338Z,70.65
2017-02-08T08:37:06.322Z,70.65
2017-02-08T08:38:06.304Z,70.47
2017-02-08T08:39:06.289Z,70.84
2017-02-08T08:40:06.268Z,70.84
2017-02-08T08:41:06.256Z,70.56
2017-02-08T08:42:06.236Z,69.9
2017-02-08T08:43:06.220Z,69.9
2017-02-08T08:44:06.202Z,70.28
2017-02-08T08:45:06.187Z,70.56
2017-02-08T08:46:06.168Z,70.47
2017-02-08T08:47:06.153Z,70.65
2017-02-08T08:48:06.136Z,70.65
2017-02-08T08:49:06.117Z,70.84
2017-02-08T08:50:06.102Z,70.65
2017-02-08T08:51:06.087Z,70.18
2017-02-08T08:52:06.068Z,70.18
2017-02-08T08:53:06.052Z,70.37
2017-02-08T08:54:06.036Z,70.09
2017-02-08T08:55:06.017Z,70.18
2017-02-08T08:56:06.000Z,69.81
2017-02-08T08:57:05.983Z,69.43
2017-02-08T08:58:05.967Z,69.24
2017-02-08T08:59:05.949Z,69.71
2017-02-08T09:00:05.933Z,69.71
2017-02-08T09:01:05.916Z,69.52
2017-02-08T09:02:05.900Z,69.24
2017-02-08T09:03:05.883Z,69.43
2017-02-08T09:04:05.865Z,69.24
2017-02-08T09:05:05.463Z,69.52
2017-02-08T09:06:05.833Z,69.33
2017-02-08T09:07:05.815Z,70
2017-02-08T09:08:05.799Z,69.62
2017-02-08T09:09:05.782Z,70.18
2017-02-08T09:10:05.766Z,69.71
2017-02-08T09:11:05.751Z,69.81
2017-02-08T09:12:05.731Z,69.05
2017-02-08T09:13:05.715Z,69.14
2017-02-08T09:14:05.698Z,68.86
2017-02-08T09:15:05.680Z,69.05
2017-02-08T09:16:05.666Z,68.39
2017-02-08T09:17:05.650Z,68.57
2017-02-08T09:18:05.634Z,69.05
2017-02-08T09:19:05.614Z,68.95
2017-02-08T09:20:05.212Z,69.05
2017-02-08T09:21:05.583Z,69.14
2017-02-08T09:22:05.178Z,68.39
2017-02-08T09:23:05.549Z,68.2
2017-02-08T09:24:05.533Z,68.04
2017-02-08T09:25:05.515Z,67.29
2017-02-08T09:26:05.502Z,67.47
2017-02-08T09:27:05.483Z,66.63
2017-02-08T09:28:05.084Z,67.1
2017-02-08T09:29:05.452Z,66.91
2017-02-08T09:30:05.049Z,67.38
2017-02-08T09:31:05.418Z,67.1
2017-02-08T09:32:05.404Z,67
2017-02-08T09:33:05.386Z,66.91
2017-02-08T09:34:05.368Z,66.82
2017-02-08T09:35:05.353Z,66.44
2017-02-08T09:36:05.336Z,65.97
2017-02-08T09:37:05.320Z,65.02
2017-02-08T09:38:05.303Z,65.3
2017-02-08T09:39:05.287Z,65.49
2017-02-08T09:40:05.272Z,66.59
2017-02-08T09:41:05.258Z,66.25
2017-02-08T09:42:05.240Z,66.63
2017-02-08T09:43:05.223Z,65.87
2017-02-08T09:44:05.209Z,66.16
2017-02-08T09:45:05.192Z,65.3
2017-02-08T09:46:05.176Z,65.11
2017-02-08T09:47:05.160Z,65.21
2017-02-08T09:48:05.144Z,64.54
2017-02-08T09:49:05.130Z,64.64
2017-02-08T09:50:05.115Z,65.3
2017-02-08T09:51:05.097Z,65.3
2017-02-08T09:52:05.082Z,65.4
2017-02-08T09:53:05.068Z,65.02
2017-02-08T09:54:04.663Z,65.11
2017-02-08T09:55:05.034Z,64.58
2017-02-08T09:56:05.018Z,63.35
2017-02-08T09:57:05.003Z,62.5
2017-02-08T09:58:04.989Z,63.07
2017-02-08T09:59:04.971Z,62.78
2017-02-08T10:00:04.956Z,63.13
2017-02-08T10:01:04.941Z,63.6
2017-02-08T10:02:04.926Z,63.04
2017-02-08T10:03:04.911Z,63.04
2017-02-08T10:04:04.897Z,63.04
2017-02-08T10:05:04.877Z,62.75
2017-02-08T10:06:04.863Z,62.85
2017-02-08T10:07:04.847Z,63.51
2017-02-08T10:08:04.831Z,64.26
2017-02-08T10:09:04.815Z,64.07
2017-02-08T10:10:04.802Z,63.6
2017-02-08T10:11:04.788Z,63.32
2017-02-08T10:12:04.770Z,63.79
2017-02-08T10:13:04.752Z,64.17
2017-02-08T10:14:04.737Z,63.89
2017-02-08T10:15:04.722Z,64.64
2017-02-08T10:16:04.706Z,63.98
2017-02-08T10:17:04.690Z,64.83
2017-02-08T10:18:04.676Z,65.3
2017-02-08T10:19:04.662Z,65.4
2017-02-08T10:20:04.676Z,64.92
2017-02-08T10:21:04.630Z,63.6
2017-02-08T10:22:04.615Z,62.47
2017-02-08T10:23:04.598Z,62.94
2017-02-08T10:24:04.583Z,62.37
2017-02-08T10:25:04.566Z,62.18
2017-02-08T10:26:04.554Z,62.75
2017-02-08T10:27:04.536Z,63.04
2017-02-08T10:28:04.523Z,62.85
2017-02-08T10:29:04.505Z,63.04
2017-02-08T10:30:04.491Z,62.69
2017-02-08T10:31:04.474Z,63.16
2017-02-08T10:32:04.460Z,62.31
2017-02-08T10:33:04.447Z,60.7
2017-02-08T10:34:04.431Z,60.33
2017-02-08T10:35:04.415Z,60.42
2017-02-08T10:36:04.400Z,60.33
2017-02-08T10:37:04.386Z,60.33
2017-02-08T10:38:04.374Z,60.04
2017-02-08T10:39:04.355Z,59.19
2017-02-08T10:40:04.342Z,59.28
2017-02-08T10:41:04.327Z,59.09
2017-02-08T10:42:04.312Z,59.76
2017-02-08T10:43:04.297Z,59.95
2017-02-08T10:44:04.281Z,60.89
2017-02-08T10:45:04.267Z,60.89
2017-02-08T10:46:04.254Z,60.33
2017-02-08T10:47:03.850Z,60.14
2017-02-08T10:48:03.836Z,59.41
2017-02-08T10:49:04.213Z,58.84
2017-02-08T10:50:04.194Z,58.47
2017-02-08T10:51:04.179Z,58.18
2017-02-08T10:52:04.170Z,57.9
2017-02-08T10:53:04.151Z,58.18
2017-02-08T10:54:04.140Z,57.52
2017-02-08T10:55:04.122Z,58.18
2017-02-08T10:56:04.109Z,57.8
2017-02-08T10:57:04.093Z,57.71
2017-02-08T10:58:04.081Z,57.33
2017-02-08T10:59:04.067Z,57.14
2017-02-08T11:00:04.053Z,57.14
2017-02-08T11:01:04.038Z,56.48
2017-02-08T11:02:04.024Z,55.75
2017-02-08T11:03:04.009Z,55.75
2017-02-08T11:04:03.995Z,55.53
2017-02-08T11:05:03.982Z,55.63
2017-02-08T11:06:03.968Z,55.72
2017-02-08T11:07:03.953Z,55.75
2017-02-08T11:08:03.556Z,55.27
2017-02-08T11:09:03.927Z,54.99
2017-02-08T11:10:03.913Z,54.68
2017-02-08T11:11:03.900Z,54.58
2017-02-08T11:12:03.887Z,55.15
2017-02-08T11:13:03.877Z,55.63
2017-02-08T11:14:03.470Z,56.29
2017-02-08T11:15:03.844Z,55.82
2017-02-08T11:16:03.830Z,56.57
2017-02-08T11:17:03.816Z,55.72
2017-02-08T11:18:03.801Z,56.29
2017-02-08T11:19:03.790Z,56.01
2017-02-08T11:20:03.773Z,56.76
2017-02-08T11:21:03.763Z,56.85
2017-02-08T11:22:03.745Z,57.14
2017-02-08T11:23:03.733Z,57.23
2017-02-08T11:24:03.720Z,56.95
2017-02-08T11:25:03.703Z,56.48
2017-02-08T11:26:03.689Z,56.01
2017-02-08T11:27:03.674Z,55.53
2017-02-08T11:28:03.662Z,55.15
2017-02-08T11:29:03.649Z,54.68
2017-02-08T11:30:03.632Z,54.58
2017-02-08T11:31:03.619Z,54.58
2017-02-08T11:32:03.607Z,55.06
2017-02-08T11:33:03.592Z,55.53
2017-02-08T11:34:03.578Z,55.63
2017-02-08T11:35:03.565Z,56.1
2017-02-08T11:36:03.551Z,55.82
2017-02-08T11:37:03.535Z,55.63
2017-02-08T11:38:03.525Z,56.29
2017-02-08T11:39:03.508Z,56.95
2017-02-08T11:40:03.495Z,56.57
2017-02-08T11:41:03.479Z,56.57
2017-02-08T11:42:03.468Z,56.48
2017-02-08T11:43:03.451Z,57.04
2017-02-08T11:44:03.438Z,56.73
2017-02-08T11:45:03.423Z,56.63
2017-02-08T11:46:03.409Z,57.2
2017-02-08T11:47:03.008Z,57.3
2017-02-08T11:48:02.994Z,58.25
2017-02-08T11:49:02.981Z,58.06
2017-02-08T11:50:03.355Z,58.34
2017-02-08T11:51:03.337Z,58.44
2017-02-08T11:52:03.322Z,59.09
2017-02-08T11:53:03.311Z,59.92
2017-02-08T11:54:03.295Z,60.23
2017-02-08T11:55:03.281Z,59.57
2017-02-08T11:56:03.266Z,59.47
2017-02-08T11:57:03.253Z,59.28
2017-02-08T11:58:03.238Z,59.19
2017-02-08T11:59:03.224Z,59.19
2017-02-08T12:00:03.208Z,58.62
2017-02-08T12:01:03.198Z,58.94
2017-02-08T12:02:03.179Z,58.37
2017-02-08T12:03:03.175Z,58.18
2017-02-08T12:04:03.151Z,57.8
2017-02-08T12:05:03.138Z,58.28
2017-02-08T12:06:03.126Z,57.8
2017-02-08T12:07:03.111Z,57.33
2017-02-08T12:08:03.095Z,57.14
2017-02-08T12:09:03.081Z,56.67
2017-02-08T12:10:03.066Z,56.76
2017-02-08T12:11:03.051Z,56.38
2017-02-08T12:12:03.038Z,56.76
2017-02-08T12:13:03.025Z,57.14
2017-02-08T12:14:03.007Z,57.23
2017-02-08T12:15:02.995Z,57.23
2017-02-08T12:16:02.980Z,57.33
2017-02-08T12:17:02.965Z,57.52
2017-02-08T12:18:02.951Z,57.23
2017-02-08T12:19:02.937Z,57.04
2017-02-08T12:20:02.922Z,57.49
2017-02-08T12:21:02.908Z,57.68
2017-02-08T12:22:02.893Z,57.96
2017-02-08T12:23:02.882Z,58.44
2017-02-08T12:24:02.865Z,58.15
2017-02-08T12:25:02.851Z,58.53
2017-02-08T12:26:02.838Z,58.72
2017-02-08T12:27:02.823Z,58.62
2017-02-08T12:28:02.811Z,58.34
2017-02-08T12:29:02.794Z,59
2017-02-08T12:30:02.780Z,58.84
2017-02-08T12:31:02.765Z,58.75
2017-02-08T12:32:02.751Z,58.75
2017-02-08T12:33:02.739Z,58.37
2017-02-08T12:34:02.723Z,58.37
2017-02-08T12:35:02.709Z,58.37
2017-02-08T12:36:02.697Z,57.8
2017-02-08T12:37:02.680Z,57.71
2017-02-08T12:38:02.667Z,57.8
2017-02-08T12:39:02.655Z,58.28
2017-02-08T12:40:02.636Z,57.99
2017-02-08T12:41:02.237Z,58.18
2017-02-08T12:42:02.606Z,58.09
2017-02-08T12:43:02.594Z,58.28
2017-02-08T12:44:02.581Z,58.62
2017-02-08T12:45:02.571Z,58.34
2017-02-08T12:46:02.551Z,58.53
2017-02-08T12:47:02.536Z,59
2017-02-08T12:48:02.524Z,59.66
2017-02-08T12:49:02.508Z,60.52
2017-02-08T12:50:02.106Z,60.96
2017-02-08T12:51:02.479Z,61.8
2017-02-08T12:52:02.466Z,62.47
2017-02-08T12:53:02.447Z,62.09
2017-02-08T12:54:02.433Z,61.74
2017-02-08T12:55:02.419Z,61.46